Aviation Digital Data Service (ADDS)

Output produced by METARs form (0524 UTC 16 December 2017)
found at http://www.aviationweather.gov/adds/metars/
 
METAR text: KCCR 160453Z 00000KT 5SM HZ CLR 11/07 A3005 RMK AO2 SLP160 T01060072
Conditions at: KCCR (CONCORD , CA, US) observed 0453 UTC 16 December 2017
Temperature: 10.6°C (51°F)
Dewpoint: 7.2°C (45°F) [RH = 79%]
Pressure (altimeter): 30.05 inches Hg (1017.7 mb)
[Sea-level pressure: 1016.0 mb]
Winds: calm
Visibility: 5 miles (8 km)
Ceiling: at least 12,000 feet AGL
Clouds: sky clear below 12,000 feet AGL
Weather: HZ  (haze)

METAR text: KCCR 160353Z 32004KT 5SM HZ CLR 11/07 A3006 RMK AO2 PRESRR SLP165 T01060072
Conditions at: KCCR (CONCORD , CA, US) observed 0353 UTC 16 December 2017
Temperature: 10.6°C (51°F)
Dewpoint: 7.2°C (45°F) [RH = 79%]
Pressure (altimeter): 30.06 inches Hg (1018.0 mb)
[Sea-level pressure: 1016.5 mb]
Winds: from the NW (320 degrees) at 5 MPH (4 knots; 2.1 m/s)
Visibility: 5 miles (8 km)
Ceiling: at least 12,000 feet AGL
Clouds: sky clear below 12,000 feet AGL
Weather: HZ  (haze)

METAR text: KCCR 160253Z 00000KT 6SM HZ CLR 12/08 A3004 RMK AO2 SLP157 T01220078 58008
Conditions at: KCCR (CONCORD , CA, US) observed 0253 UTC 16 December 2017
Temperature: 12.2°C (54°F)
Dewpoint: 7.8°C (46°F) [RH = 74%]
Pressure (altimeter): 30.04 inches Hg (1017.4 mb)
[Sea-level pressure: 1015.7 mb]
Winds: calm
Visibility: 6 miles (10 km)
Ceiling: at least 12,000 feet AGL
Clouds: sky clear below 12,000 feet AGL
Weather: HZ  (haze)

METAR text: KCCR 160153Z 12003KT 6SM HZ CLR 12/07 A3005 RMK AO2 SLP161 T01220072
Conditions at: KCCR (CONCORD , CA, US) observed 0153 UTC 16 December 2017
Temperature: 12.2°C (54°F)
Dewpoint: 7.2°C (45°F) [RH = 71%]
Pressure (altimeter): 30.05 inches Hg (1017.7 mb)
[Sea-level pressure: 1016.1 mb]
Winds: from the ESE (120 degrees) at 3 MPH (3 knots; 1.6 m/s)
Visibility: 6 miles (10 km)
Ceiling: at least 12,000 feet AGL
Clouds: sky clear below 12,000 feet AGL
Weather: HZ  (haze)

METAR text: KCCR 160053Z 00000KT 6SM HZ CLR 14/07 A3006 RMK AO2 SLP165 T01390072
Conditions at: KCCR (CONCORD , CA, US) observed 0053 UTC 16 December 2017
Temperature: 13.9°C (57°F)
Dewpoint: 7.2°C (45°F) [RH = 64%]
Pressure (altimeter): 30.06 inches Hg (1018.0 mb)
[Sea-level pressure: 1016.5 mb]
Winds: calm
Visibility: 6 miles (10 km)
Ceiling: at least 12,000 feet AGL
Clouds: sky clear below 12,000 feet AGL
Weather: HZ  (haze)

METAR text: KCCR 152353Z 35003KT 6SM HZ CLR 14/08 A3006 RMK AO2 SLP165 T01440078 10161 20094 56022
Conditions at: KCCR (CONCORD , CA, US) observed 2353 UTC 15 December 2017
Temperature: 14.4°C (58°F)
Dewpoint: 7.8°C (46°F) [RH = 65%]
Pressure (altimeter): 30.06 inches Hg (1018.0 mb)
[Sea-level pressure: 1016.5 mb]
Winds: from the N (350 degrees) at 3 MPH (3 knots; 1.6 m/s)
Visibility: 6 miles (10 km)
Ceiling: at least 12,000 feet AGL
Clouds: sky clear below 12,000 feet AGL
Weather: HZ  (haze)

METAR text: KCCR 152253Z 35006KT 6SM HZ CLR 15/08 A3007 RMK AO2 SLP168 T01500078
Conditions at: KCCR (CONCORD , CA, US) observed 2253 UTC 15 December 2017
Temperature: 15.0°C (59°F)
Dewpoint: 7.8°C (46°F) [RH = 62%]
Pressure (altimeter): 30.07 inches Hg (1018.4 mb)
[Sea-level pressure: 1016.8 mb]
Winds: from the N (350 degrees) at 7 MPH (6 knots; 3.1 m/s)
Visibility: 6 miles (10 km)
Ceiling: at least 12,000 feet AGL
Clouds: sky clear below 12,000 feet AGL
Weather: HZ  (haze)

METAR text: KCCR 152153Z 00000KT 6SM HZ CLR 16/07 A3008 RMK AO2 SLP172 T01610072
Conditions at: KCCR (CONCORD , CA, US) observed 2153 UTC 15 December 2017
Temperature: 16.1°C (61°F)
Dewpoint: 7.2°C (45°F) [RH = 56%]
Pressure (altimeter): 30.08 inches Hg (1018.7 mb)
[Sea-level pressure: 1017.2 mb]
Winds: calm
Visibility: 6 miles (10 km)
Ceiling: at least 12,000 feet AGL
Clouds: sky clear below 12,000 feet AGL
Weather: HZ  (haze)